createdAt,value
2022-12-06T00:01:39.110Z,98569.31
2022-12-06T00:04:11.589Z,98567.50
2022-12-06T00:06:48.346Z,98566.06
2022-12-06T00:09:22.809Z,98560.88
2022-12-06T00:11:50.647Z,98559.13
2022-12-06T00:14:18.468Z,98561.97
2022-12-06T00:16:45.814Z,98559.41
2022-12-06T00:19:16.647Z,98567.88
2022-12-06T00:21:44.745Z,98557.50
2022-12-06T00:24:16.462Z,98561.16
2022-12-06T00:26:46.277Z,98563.03
2022-12-06T00:29:22.819Z,98557.81
2022-12-06T00:31:50.653Z,98556.84
2022-12-06T00:34:18.097Z,98552.22
2022-12-06T00:36:45.132Z,98546.94
2022-12-06T00:39:15.852Z,98546.81
2022-12-06T00:41:43.501Z,98550.41
2022-12-06T00:44:11.195Z,98545.38
2022-12-06T00:46:38.696Z,98552.38
2022-12-06T00:49:07.557Z,98556.28
2022-12-06T00:51:36.663Z,98556.31
2022-12-06T00:54:04.497Z,98565.91
2022-12-06T00:56:32.655Z,98565.94
2022-12-06T00:59:00.071Z,98563.41
2022-12-06T01:01:31.166Z,98551.41
2022-12-06T01:04:02.474Z,98562.44
2022-12-06T01:06:32.765Z,98556.69
2022-12-06T01:09:07.739Z,98558.34
2022-12-06T01:11:35.191Z,98565.03
2022-12-06T01:14:02.674Z,98559.28
2022-12-06T01:16:31.575Z,98565.88
2022-12-06T01:19:01.474Z,98557.97
2022-12-06T01:21:29.366Z,98559.97
2022-12-06T01:23:56.801Z,98556.06
2022-12-06T01:26:31.272Z,98560.06
2022-12-06T01:28:59.477Z,98562.66
2022-12-06T01:31:33.614Z,98552.28
2022-12-06T01:34:02.726Z,98546.94
2022-12-06T01:36:29.877Z,98549.50
2022-12-06T01:38:58.849Z,98539.13
2022-12-06T01:41:28.087Z,98538.28
2022-12-06T01:43:56.339Z,98539.19
2022-12-06T01:46:42.919Z,98531.44
2022-12-06T01:49:13.001Z,98541.81
2022-12-06T01:51:49.917Z,98538.31
2022-12-06T01:54:18.815Z,98534.88
2022-12-06T01:56:47.115Z,98537.44
2022-12-06T01:59:15.109Z,98538.13
2022-12-06T02:01:42.350Z,98538.03
2022-12-06T02:04:09.812Z,98537.25
2022-12-06T02:06:39.749Z,98537.28
2022-12-06T02:09:09.650Z,98534.69
2022-12-06T02:11:37.250Z,98538.78
2022-12-06T02:14:11.136Z,98546.56
2022-12-06T02:16:59.805Z,98530.84
2022-12-06T02:19:59.604Z,98525.16
2022-12-06T02:22:56.544Z,98529.03
2022-12-06T02:25:44.444Z,98516.94
2022-12-06T02:28:53.506Z,98516.53
2022-12-06T02:31:35.340Z,98519.81
2022-12-06T02:34:26.137Z,98516.56
2022-12-06T02:37:03.820Z,98509.06
2022-12-06T02:39:58.421Z,98504.97
2022-12-06T02:42:34.262Z,98510.63
2022-12-06T02:45:11.513Z,98509.50
2022-12-06T02:47:39.453Z,98513.66
2022-12-06T02:50:16.676Z,98507.94
2022-12-06T02:52:48.968Z,98505.88
2022-12-06T02:55:17.929Z,98508.13
2022-12-06T02:57:49.650Z,98506.09
2022-12-06T03:00:46.315Z,98508.06
2022-12-06T03:03:54.824Z,98500.34
2022-12-06T03:07:05.248Z,98505.75
2022-12-06T03:09:37.317Z,98492.44
2022-12-06T03:12:35.513Z,98489.13
2022-12-06T03:15:23.807Z,98494.25
2022-12-06T03:17:59.053Z,98492.94
2022-12-06T03:20:57.801Z,98495.75
2022-12-06T03:23:33.059Z,98490.38
2022-12-06T03:26:02.233Z,98485.03
2022-12-06T03:28:31.010Z,98482.63
2022-12-06T03:31:06.278Z,98483.19
2022-12-06T03:33:35.490Z,98482.00
2022-12-06T03:36:03.180Z,98474.56
2022-12-06T03:38:37.107Z,98477.25
2022-12-06T03:41:06.788Z,98471.34
2022-12-06T03:43:34.503Z,98461.88
2022-12-06T03:46:30.603Z,98470.00
2022-12-06T03:49:27.214Z,98470.22
2022-12-06T03:51:54.607Z,98471.97
2022-12-06T03:54:21.794Z,98474.66
2022-12-06T03:56:48.774Z,98472.81
2022-12-06T03:59:15.704Z,98471.47
2022-12-06T04:01:42.657Z,98470.97
2022-12-06T04:04:10.906Z,98467.63
2022-12-06T04:06:38.043Z,98465.75
2022-12-06T04:09:23.707Z,98470.13
2022-12-06T04:11:50.671Z,98465.91
2022-12-06T04:14:17.694Z,98462.31
2022-12-06T04:17:03.137Z,98460.31
2022-12-06T04:19:30.205Z,98457.16
2022-12-06T04:22:15.689Z,98459.16
2022-12-06T04:24:42.629Z,98452.41
2022-12-06T04:27:28.157Z,98444.78
2022-12-06T04:30:13.316Z,98443.91
2022-12-06T04:32:59.068Z,98441.50
2022-12-06T04:35:44.439Z,98435.78
2022-12-06T04:38:30.541Z,98437.75
2022-12-06T04:40:57.479Z,98433.13
2022-12-06T04:43:42.345Z,98434.44
2022-12-06T04:46:11.450Z,98438.88
2022-12-06T04:48:39.776Z,98442.47
2022-12-06T04:51:07.232Z,98433.81
2022-12-06T04:53:34.384Z,98426.66
2022-12-06T04:56:01.684Z,98423.13
2022-12-06T04:58:28.681Z,98425.00
2022-12-06T05:00:56.039Z,98428.00
2022-12-06T05:03:23.136Z,98425.84
2022-12-06T05:05:50.442Z,98421.41
2022-12-06T05:08:17.472Z,98424.59
2022-12-06T05:10:48.788Z,98415.97
2022-12-06T05:13:17.556Z,98418.56
2022-12-06T05:15:57.757Z,98414.84
2022-12-06T05:18:26.029Z,98425.66
2022-12-06T05:21:04.184Z,98415.69
2022-12-06T05:23:32.083Z,98425.19
2022-12-06T05:26:01.613Z,98423.34
2022-12-06T05:28:29.933Z,98425.44
2022-12-06T05:30:57.599Z,98419.34
2022-12-06T05:33:25.394Z,98414.81
2022-12-06T05:35:52.399Z,98420.50
2022-12-06T05:38:20.219Z,98425.56
2022-12-06T05:40:47.864Z,98412.50
2022-12-06T05:43:15.341Z,98424.47
2022-12-06T05:45:43.483Z,98416.38
2022-12-06T05:48:10.715Z,98422.47
2022-12-06T05:50:37.644Z,98421.59
2022-12-06T05:53:04.667Z,98418.41
2022-12-06T05:55:31.681Z,98423.69
2022-12-06T05:57:58.634Z,98417.97
2022-12-06T06:00:25.765Z,98424.63
2022-12-06T06:02:53.129Z,98425.56
2022-12-06T06:05:20.312Z,98419.56
2022-12-06T06:07:47.604Z,98425.41
2022-12-06T06:10:15.868Z,98427.66
2022-12-06T06:12:44.734Z,98426.66
2022-12-06T06:15:13.498Z,98423.41
2022-12-06T06:17:40.856Z,98425.38
2022-12-06T06:20:11.516Z,98437.56
2022-12-06T06:22:40.188Z,98445.94
2022-12-06T06:25:07.847Z,98442.94
2022-12-06T06:27:37.693Z,98438.25
2022-12-06T06:30:08.466Z,98442.47
2022-12-06T06:32:36.459Z,98433.47
2022-12-06T06:35:05.061Z,98426.19
2022-12-06T06:37:33.034Z,98430.97
2022-12-06T06:40:01.058Z,98430.38
2022-12-06T06:42:28.239Z,98419.22
2022-12-06T06:44:55.462Z,98421.19
2022-12-06T06:47:23.464Z,98424.38
2022-12-06T06:49:50.515Z,98424.75
2022-12-06T06:52:17.563Z,98432.22
2022-12-06T06:54:44.494Z,98423.34
2022-12-06T06:57:17.137Z,98418.41
2022-12-06T06:59:45.646Z,98429.34
2022-12-06T07:02:14.862Z,98425.19
2022-12-06T07:04:42.375Z,98433.63
2022-12-06T07:07:09.500Z,98432.97
2022-12-06T07:09:36.745Z,98432.66
2022-12-06T07:12:04.474Z,98430.44
2022-12-06T07:14:31.745Z,98429.38
2022-12-06T07:17:00.746Z,98436.97
2022-12-06T07:19:27.784Z,98436.59
2022-12-06T07:21:54.771Z,98436.66
2022-12-06T07:24:21.809Z,98437.88
2022-12-06T07:26:48.762Z,98431.94
2022-12-06T07:29:15.820Z,98435.25
2022-12-06T07:31:42.820Z,98439.47
2022-12-06T07:34:10.233Z,98431.84
2022-12-06T07:36:37.321Z,98429.84
2022-12-06T07:39:04.378Z,98432.16
2022-12-06T07:41:49.765Z,98427.69
2022-12-06T07:44:58.306Z,98427.53
2022-12-06T07:47:41.450Z,98432.22
2022-12-06T07:50:26.272Z,98429.47
2022-12-06T07:52:53.447Z,98436.41
2022-12-06T07:55:20.460Z,98429.34
2022-12-06T07:57:47.412Z,98427.66
2022-12-06T08:00:16.308Z,98426.22
2022-12-06T08:02:43.810Z,98421.59
2022-12-06T08:05:11.489Z,98425.56
2022-12-06T08:07:39.307Z,98425.59
2022-12-06T08:10:07.383Z,98419.91
2022-12-06T08:12:34.384Z,98429.47
2022-12-06T08:15:01.317Z,98423.50
2022-12-06T08:17:30.133Z,98422.22
2022-12-06T08:19:57.289Z,98425.31
2022-12-06T08:22:24.345Z,98431.81
2022-12-06T08:24:51.374Z,98431.25
2022-12-06T08:27:18.312Z,98429.13
2022-12-06T08:29:45.531Z,98431.50
2022-12-06T08:32:12.563Z,98441.38
2022-12-06T08:34:39.545Z,98438.34
2022-12-06T08:37:06.501Z,98439.78
2022-12-06T08:39:33.447Z,98441.78
2022-12-06T08:42:02.941Z,98437.50
2022-12-06T08:44:32.244Z,98438.34
2022-12-06T08:47:01.944Z,98435.59
2022-12-06T08:49:30.171Z,98434.94
2022-12-06T08:51:58.716Z,98436.28
2022-12-06T08:54:26.115Z,98435.06
2022-12-06T08:56:53.630Z,98441.66
2022-12-06T08:59:20.867Z,98431.59
2022-12-06T09:01:48.168Z,98436.66
2022-12-06T09:04:15.647Z,98442.25
2022-12-06T09:06:44.703Z,98443.66
2022-12-06T09:09:14.427Z,98444.59
2022-12-06T09:11:42.030Z,98442.41
2022-12-06T09:14:21.168Z,98442.78
2022-12-06T09:16:49.926Z,98435.81
2022-12-06T09:19:17.072Z,98440.66
2022-12-06T09:21:44.612Z,98440.59
2022-12-06T09:24:17.542Z,98445.50
2022-12-06T09:26:44.514Z,98448.81
2022-12-06T09:29:12.408Z,98453.13
2022-12-06T09:31:40.442Z,98454.16
2022-12-06T09:34:10.042Z,98446.44
2022-12-06T09:36:59.172Z,98442.13
2022-12-06T09:39:34.485Z,98442.50
2022-12-06T09:42:01.352Z,98443.81
2022-12-06T09:45:01.893Z,98443.59
2022-12-06T09:48:16.855Z,98443.28
2022-12-06T09:51:32.157Z,98448.81
2022-12-06T09:54:18.838Z,98441.59
2022-12-06T09:56:58.279Z,98439.75
2022-12-06T09:59:51.440Z,98439.75
2022-12-06T10:02:33.754Z,98434.34
2022-12-06T10:05:22.298Z,98439.91
2022-12-06T10:08:24.991Z,98440.28
2022-12-06T10:11:08.520Z,98430.94
2022-12-06T10:13:54.267Z,98429.41
2022-12-06T10:17:09.633Z,98425.84
2022-12-06T10:20:33.290Z,98427.88
2022-12-06T10:23:11.177Z,98425.94
2022-12-06T10:25:44.316Z,98421.78
2022-12-06T10:28:26.588Z,98424.94
2022-12-06T10:31:04.800Z,98421.47
2022-12-06T10:33:39.666Z,98430.19
2022-12-06T10:36:11.609Z,98426.69
2022-12-06T10:39:10.554Z,98420.63
2022-12-06T10:42:03.680Z,98434.03
2022-12-06T10:44:40.920Z,98422.88
2022-12-06T10:47:24.903Z,98421.72
2022-12-06T10:50:20.915Z,98411.81
2022-12-06T10:53:26.747Z,98419.09
2022-12-06T10:56:20.446Z,98410.44
2022-12-06T10:59:36.510Z,98410.53
2022-12-06T11:02:26.077Z,98416.97
2022-12-06T11:04:58.343Z,98408.94
2022-12-06T11:07:41.302Z,98405.91
2022-12-06T11:10:31.739Z,98403.56
2022-12-06T11:13:40.563Z,98405.56
2022-12-06T11:16:22.505Z,98414.34
2022-12-06T11:18:50.220Z,98401.16
2022-12-06T11:21:53.332Z,98411.13
2022-12-06T11:24:47.750Z,98400.16
2022-12-06T11:27:26.819Z,98394.09
2022-12-06T11:29:53.831Z,98396.63
2022-12-06T11:32:21.256Z,98400.94
2022-12-06T11:34:52.791Z,98404.50
2022-12-06T11:37:23.722Z,98408.00
2022-12-06T11:39:56.587Z,98407.09
2022-12-06T11:42:27.840Z,98405.50
2022-12-06T11:45:04.315Z,98403.72
2022-12-06T11:47:31.406Z,98404.72
2022-12-06T11:50:04.271Z,98418.56
2022-12-06T11:52:50.911Z,98411.41
2022-12-06T11:55:23.624Z,98409.72
2022-12-06T11:58:01.742Z,98404.56
2022-12-06T12:00:31.159Z,98406.50
2022-12-06T12:02:58.817Z,98399.66
2022-12-06T12:05:31.139Z,98411.53
2022-12-06T12:08:19.627Z,98403.59
2022-12-06T12:10:58.581Z,98403.59
2022-12-06T12:13:46.513Z,98398.34
2022-12-06T12:16:28.991Z,98389.88
2022-12-06T12:19:03.108Z,98390.22
2022-12-06T12:21:36.500Z,98391.88
2022-12-06T12:24:05.396Z,98388.84
2022-12-06T12:26:39.781Z,98380.06
2022-12-06T12:29:16.529Z,98386.22
2022-12-06T12:32:11.471Z,98388.69
2022-12-06T12:34:42.920Z,98394.59
2022-12-06T12:37:21.023Z,98388.47
2022-12-06T12:39:54.842Z,98396.22
2022-12-06T12:42:34.788Z,98390.91
2022-12-06T12:45:05.632Z,98389.47
2022-12-06T12:47:32.961Z,98387.84
2022-12-06T12:50:18.192Z,98395.38
2022-12-06T12:52:45.573Z,98392.72
2022-12-06T12:55:23.280Z,98383.09
2022-12-06T12:58:00.333Z,98393.09
2022-12-06T13:00:38.852Z,98384.38
2022-12-06T13:03:34.758Z,98384.44
2022-12-06T13:06:00.478Z,98387.34
2022-12-06T13:08:36.117Z,98385.91
2022-12-06T13:11:05.445Z,98383.31
2022-12-06T13:13:44.805Z,98382.75
2022-12-06T13:16:26.025Z,98384.31
2022-12-06T13:18:56.395Z,98386.25
2022-12-06T13:21:36.726Z,98371.22
2022-12-06T13:24:24.279Z,98377.31
2022-12-06T13:27:03.842Z,98371.00
2022-12-06T13:29:37.146Z,98370.22
2022-12-06T13:32:14.271Z,98369.38
2022-12-06T13:34:52.340Z,98364.78
2022-12-06T13:37:36.572Z,98367.34
2022-12-06T13:40:05.899Z,98363.03
2022-12-06T13:42:41.319Z,98367.19
2022-12-06T13:45:43.670Z,98360.84
2022-12-06T13:48:25.651Z,98359.94
2022-12-06T13:51:35.389Z,98353.16
2022-12-06T13:54:05.429Z,98366.47
2022-12-06T13:56:35.494Z,98358.09
2022-12-06T13:59:12.665Z,98370.41
2022-12-06T14:02:01.191Z,98375.84
2022-12-06T14:09:46.953Z,98375.09
2022-12-06T14:12:24.716Z,98375.25
2022-12-06T14:15:04.497Z,98378.03
2022-12-06T14:20:31.507Z,98386.34
2022-12-06T14:22:58.462Z,98386.00
2022-12-06T14:25:29.640Z,98384.16
2022-12-06T14:28:10.385Z,98387.47
2022-12-06T14:30:37.517Z,98375.94
2022-12-06T14:33:19.559Z,98382.31
2022-12-06T14:35:53.892Z,98387.00
2022-12-06T14:38:28.168Z,98379.94
2022-12-06T14:41:14.540Z,98380.66
2022-12-06T14:43:46.595Z,98387.78
2022-12-06T14:46:16.497Z,98387.09
2022-12-06T14:49:03.244Z,98389.09
2022-12-06T14:51:40.994Z,98391.72
2022-12-06T14:54:19.396Z,98387.16
2022-12-06T14:56:46.477Z,98387.09
2022-12-06T14:59:13.432Z,98382.66
2022-12-06T15:01:49.868Z,98384.56
2022-12-06T15:04:35.292Z,98378.56
2022-12-06T15:07:02.524Z,98377.31
2022-12-06T15:09:31.591Z,98371.31
2022-12-06T15:12:46.461Z,98378.50
2022-12-06T15:15:36.421Z,98383.50
2022-12-06T15:18:22.660Z,98378.16
2022-12-06T15:20:50.465Z,98374.72
2022-12-06T15:23:41.509Z,98379.50
2022-12-06T15:26:11.968Z,98382.00
2022-12-06T15:28:39.720Z,98375.03
2022-12-06T15:31:21.355Z,98370.88
2022-12-06T15:33:49.370Z,98376.03
2022-12-06T15:36:26.584Z,98373.16
2022-12-06T15:38:53.796Z,98373.53
2022-12-06T15:41:27.376Z,98371.19
2022-12-06T15:43:57.409Z,98374.66
2022-12-06T15:46:28.051Z,98371.88
2022-12-06T15:48:56.039Z,98368.88
2022-12-06T15:51:26.547Z,98363.41
2022-12-06T15:53:55.933Z,98372.19
2022-12-06T15:56:27.248Z,98374.72
2022-12-06T15:58:54.547Z,98374.47
2022-12-06T16:01:33.631Z,98381.56
2022-12-06T16:04:01.074Z,98376.41
2022-12-06T16:06:29.413Z,98379.41
2022-12-06T16:08:56.617Z,98381.25
2022-12-06T16:11:26.156Z,98396.69
2022-12-06T16:13:53.583Z,98390.94
2022-12-06T16:16:22.555Z,98390.84
2022-12-06T16:18:50.902Z,98391.34
2022-12-06T16:21:29.850Z,98396.06
2022-12-06T16:24:16.739Z,98394.16
2022-12-06T16:26:45.262Z,98392.78
2022-12-06T16:29:23.137Z,98391.00
2022-12-06T16:31:51.417Z,98395.16
2022-12-06T16:34:19.119Z,98393.84
2022-12-06T16:36:56.375Z,98395.00
2022-12-06T16:39:23.540Z,98395.41
2022-12-06T16:41:50.502Z,98404.63
2022-12-06T16:44:17.468Z,98388.09
2022-12-06T16:46:45.722Z,98387.88
2022-12-06T16:52:08.407Z,98386.22
2022-12-06T16:54:35.959Z,98388.09
2022-12-06T16:57:03.304Z,98392.63
2022-12-06T16:59:30.649Z,98395.16
2022-12-06T17:01:58.019Z,98393.41
2022-12-06T17:04:26.066Z,98395.34
2022-12-06T17:06:53.402Z,98394.47
2022-12-06T17:09:20.740Z,98396.31
2022-12-06T17:12:03.371Z,98398.84
2022-12-06T17:14:31.002Z,98398.63
2022-12-06T17:17:03.640Z,98396.00
2022-12-06T17:19:31.610Z,98399.25
2022-12-06T17:21:59.471Z,98404.63
2022-12-06T17:24:27.554Z,98392.00
2022-12-06T17:26:55.849Z,98390.19
2022-12-06T17:29:24.064Z,98395.56
2022-12-06T17:31:52.226Z,98386.63
2022-12-06T17:34:20.635Z,98384.19
2022-12-06T17:36:49.266Z,98389.94
2022-12-06T17:39:18.850Z,98385.50
2022-12-06T17:42:05.136Z,98382.16
2022-12-06T17:44:33.909Z,98386.63
2022-12-06T17:47:01.674Z,98377.03
2022-12-06T17:49:29.439Z,98383.09
2022-12-06T17:51:57.091Z,98386.72
2022-12-06T17:54:24.519Z,98392.47
2022-12-06T17:56:53.477Z,98387.00
2022-12-06T17:59:23.039Z,98390.38
2022-12-06T18:02:14.211Z,98393.22
2022-12-06T18:04:38.323Z,98394.22
2022-12-06T18:07:06.035Z,98401.22
2022-12-06T18:09:33.425Z,98399.69
2022-12-06T18:12:01.249Z,98398.09
2022-12-06T18:14:29.220Z,98405.16
2022-12-06T18:16:56.724Z,98406.28
2022-12-06T18:19:24.278Z,98403.53
2022-12-06T18:21:53.087Z,98397.16
2022-12-06T18:24:23.862Z,98404.53
2022-12-06T18:26:52.967Z,98403.59
2022-12-06T18:29:22.692Z,98401.47
2022-12-06T18:31:50.687Z,98400.25
2022-12-06T18:34:18.385Z,98408.41
2022-12-06T18:36:45.803Z,98398.69
2022-12-06T18:39:24.136Z,98405.63
2022-12-06T18:41:52.856Z,98407.16
2022-12-06T18:44:20.312Z,98410.44
2022-12-06T18:46:47.850Z,98417.69
2022-12-06T18:49:15.290Z,98409.00
2022-12-06T18:51:42.676Z,98408.63
2022-12-06T18:54:13.475Z,98411.13
2022-12-06T18:56:40.911Z,98410.63
2022-12-06T18:59:08.821Z,98403.78
2022-12-06T19:01:38.624Z,98406.69
2022-12-06T19:04:08.778Z,98402.41
2022-12-06T19:06:37.637Z,98410.91
2022-12-06T19:09:08.155Z,98414.00
2022-12-06T19:11:39.828Z,98411.31
2022-12-06T19:14:07.657Z,98411.53
2022-12-06T19:16:46.601Z,98410.41
2022-12-06T19:19:25.568Z,98417.31
2022-12-06T19:21:54.370Z,98419.81
2022-12-06T19:24:24.270Z,98414.53
2022-12-06T19:26:53.039Z,98414.00
2022-12-06T19:29:20.634Z,98407.16
2022-12-06T19:31:48.495Z,98406.56
2022-12-06T19:34:20.637Z,98403.78
2022-12-06T19:36:49.617Z,98405.63
2022-12-06T19:39:17.903Z,98408.63
2022-12-06T19:42:03.954Z,98403.47
2022-12-06T19:44:31.665Z,98405.22
2022-12-06T19:46:59.040Z,98405.53
2022-12-06T19:49:27.210Z,98407.31
2022-12-06T19:51:54.616Z,98409.00
2022-12-06T19:54:25.003Z,98403.78
2022-12-06T19:56:53.811Z,98401.16
2022-12-06T19:59:21.759Z,98404.84
2022-12-06T20:01:50.206Z,98398.69
2022-12-06T20:04:20.098Z,98403.63
2022-12-06T20:06:47.489Z,98400.91
2022-12-06T20:09:15.097Z,98406.22
2022-12-06T20:12:01.516Z,98405.44
2022-12-06T20:14:29.762Z,98409.69
2022-12-06T20:16:56.770Z,98408.53
2022-12-06T20:19:24.306Z,98402.69
2022-12-06T20:21:51.648Z,98399.53
2022-12-06T20:24:21.851Z,98405.31
2022-12-06T20:26:51.676Z,98404.84
2022-12-06T20:29:19.916Z,98398.78
2022-12-06T20:31:49.919Z,98402.38
2022-12-06T20:34:17.330Z,98408.59
2022-12-06T20:36:44.592Z,98410.44
2022-12-06T20:39:20.918Z,98408.38
2022-12-06T20:41:49.272Z,98410.28
2022-12-06T20:44:17.527Z,98410.06
2022-12-06T20:46:45.627Z,98410.50
2022-12-06T20:49:13.233Z,98407.00
2022-12-06T20:51:40.877Z,98404.63
2022-12-06T20:54:08.684Z,98409.47
2022-12-06T20:56:39.085Z,98403.94
2022-12-06T20:59:07.548Z,98407.38
2022-12-06T21:01:37.240Z,98406.56
2022-12-06T21:04:04.785Z,98406.53
2022-12-06T21:06:32.396Z,98403.22
2022-12-06T21:08:59.777Z,98402.22
2022-12-06T21:11:27.187Z,98402.81
2022-12-06T21:13:56.023Z,98400.81
2022-12-06T21:16:28.679Z,98402.59
2022-12-06T21:19:00.784Z,98404.34
2022-12-06T21:21:34.453Z,98408.41
2022-12-06T21:24:04.029Z,98405.63
2022-12-06T21:26:32.323Z,98403.44
2022-12-06T21:28:59.799Z,98405.78
2022-12-06T21:31:32.613Z,98403.22
2022-12-06T21:34:00.512Z,98407.63
2022-12-06T21:36:28.000Z,98407.47
2022-12-06T21:38:55.822Z,98403.22
2022-12-06T21:41:23.353Z,98410.00
2022-12-06T21:43:50.919Z,98407.63
2022-12-06T21:46:21.099Z,98405.41
2022-12-06T21:48:56.549Z,98405.41
2022-12-06T21:51:25.859Z,98409.69
2022-12-06T21:53:53.604Z,98408.28
2022-12-06T21:56:26.441Z,98412.13
2022-12-06T21:58:54.447Z,98407.53
2022-12-06T22:01:24.511Z,98417.84
2022-12-06T22:03:53.397Z,98413.41
2022-12-06T22:06:21.043Z,98414.69
2022-12-06T22:08:49.323Z,98421.22
2022-12-06T22:11:18.779Z,98419.47
2022-12-06T22:13:47.165Z,98423.06
2022-12-06T22:16:15.299Z,98415.63
2022-12-06T22:18:45.979Z,98412.25
2022-12-06T22:21:19.507Z,98415.47
2022-12-06T22:23:47.474Z,98417.69
2022-12-06T22:26:17.458Z,98406.25
2022-12-06T22:28:45.441Z,98413.25
2022-12-06T22:31:16.982Z,98414.91
2022-12-06T22:33:44.838Z,98412.13
2022-12-06T22:36:13.326Z,98411.31
2022-12-06T22:38:41.151Z,98405.31
2022-12-06T22:41:09.037Z,98401.94
2022-12-06T22:43:37.179Z,98405.84
2022-12-06T22:46:23.037Z,98402.94
2022-12-06T22:48:50.775Z,98397.53
2022-12-06T22:51:20.314Z,98396.78
2022-12-06T22:53:52.184Z,98396.53
2022-12-06T22:56:19.848Z,98394.00
2022-12-06T22:58:48.173Z,98396.78
2022-12-06T23:01:18.141Z,98400.94
2022-12-06T23:03:47.077Z,98406.84
2022-12-06T23:06:16.008Z,98401.97
2022-12-06T23:08:43.635Z,98406.00
2022-12-06T23:11:13.725Z,98404.69
2022-12-06T23:13:41.703Z,98401.06
2022-12-06T23:16:19.588Z,98403.53
2022-12-06T23:18:47.482Z,98398.53
2022-12-06T23:21:17.525Z,98401.13
2022-12-06T23:23:50.652Z,98406.00
2022-12-06T23:26:21.868Z,98395.84
2022-12-06T23:28:49.870Z,98397.59
2022-12-06T23:31:20.220Z,98398.72
2022-12-06T23:33:48.048Z,98390.72
2022-12-06T23:36:19.737Z,98397.53
2022-12-06T23:38:47.371Z,98394.84
2022-12-06T23:41:20.518Z,98401.53
2022-12-06T23:43:48.005Z,98391.16
2022-12-06T23:46:21.953Z,98394.19
2022-12-06T23:48:50.394Z,98393.00
2022-12-06T23:51:20.664Z,98385.97
2022-12-06T23:53:59.053Z,98386.63
2022-12-06T23:56:28.701Z,98384.28
2022-12-06T23:58:56.690Z,98384.59
